Time;durP1;ratioP1;P1;durP2;ratioP2;P2;SDS_P1;SDS_P2;PMS_P1;PMS_P2;Temp;Humidity;BMP_temperature;BMP_pressure;BME280_temperature;BME280_humidity;BME280_pressure;Samples;Min_cycle;Max_cycle;Signal;HPM_P1;HPM_P2
2021/06/15 00:01:04;;;;;;;15.82;5.93;;;;;;;;;;3583260;39;20023;-62
2021/06/15 00:03:30;;;;;;;11.18;5.45;;;;;;;;;;3594512;39;20020;-62
2021/06/15 00:05:56;;;;;;;16.55;6.25;;;;;;;;;;3581202;39;20072;-62
2021/06/15 00:08:22;;;;;;;15.35;6.70;;;;;;;;;;3589236;39;20020;-62
2021/06/15 00:10:48;;;;;;;17.20;6.97;;;;;;;;;;3591733;39;20032;-62
2021/06/15 00:13:15;;;;;;;16.48;6.95;;;;;;;;;;3593426;39;20065;-62
2021/06/15 00:15:41;;;;;;;41.88;8.48;;;;;;;;;;3591972;39;20020;-62
2021/06/15 00:18:08;;;;;;;32.95;7.40;;;;;;;;;;3597379;39;20056;-62
2021/06/15 00:20:34;;;;;;;45.65;9.82;;;;;;;;;;3596579;39;20043;-62
2021/06/15 00:23:00;;;;;;;47.63;9.68;;;;;;;;;;3591168;39;20841;-62
2021/06/15 00:25:26;;;;;;;45.40;9.65;;;;;;;;;;3592978;39;20133;-63
2021/06/15 00:27:52;;;;;;;35.35;8.70;;;;;;;;;;3592121;39;20097;-62
2021/06/15 00:30:19;;;;;;;41.53;9.43;;;;;;;;;;3588946;39;20036;-62
2021/06/15 00:32:50;;;;;;;48.97;9.75;;;;;;;;;;3588735;39;20039;-62
2021/06/15 00:35:16;;;;;;;39.22;8.80;;;;;;;;;;3589092;39;20328;-62
2021/06/15 00:37:42;;;;;;;13.98;5.30;;;;;;;;;;3583219;39;20032;-62
2021/06/15 00:40:09;;;;;;;14.65;5.95;;;;;;;;;;3590952;39;20176;-62
2021/06/15 00:42:35;;;;;;;25.38;8.32;;;;;;;;;;3578412;40;20058;-62
2021/06/15 00:45:01;;;;;;;48.30;9.48;;;;;;;;;;3590850;39;20039;-62
2021/06/15 00:47:28;;;;;;;46.58;9.63;;;;;;;;;;3591510;39;20039;-62
2021/06/15 00:49:56;;;;;;;41.63;9.00;;;;;;;;;;3585067;39;20503;-62
2021/06/15 00:52:22;;;;;;;37.40;7.97;;;;;;;;;;3587643;39;20605;-62
2021/06/15 00:54:49;;;;;;;47.05;10.25;;;;;;;;;;3585016;39;20088;-62
2021/06/15 00:57:16;;;;;;;41.95;9.75;;;;;;;;;;3581911;39;20028;-62
2021/06/15 00:59:43;;;;;;;52.08;11.07;;;;;;;;;;3592845;39;20043;-62
2021/06/15 01:02:10;;;;;;;48.42;10.18;;;;;;;;;;3589848;39;20042;-62
2021/06/15 01:04:36;;;;;;;51.42;9.30;;;;;;;;;;3594262;39;20136;-61
2021/06/15 01:07:02;;;;;;;68.50;10.93;;;;;;;;;;3599661;39;20046;-62
2021/06/15 01:09:49;;;;;;;82.25;11.18;;;;;;;;;;3599568;39;20311;-62
2021/06/15 01:12:15;;;;;;;111.90;13.73;;;;;;;;;;3594828;39;20660;-62
2021/06/15 01:14:59;;;;;;;95.93;12.95;;;;;;;;;;3594799;39;20748;-62
2021/06/15 01:17:31;;;;;;;96.10;12.57;;;;;;;;;;3582658;39;20111;-61
2021/06/15 01:20:10;;;;;;;86.85;11.98;;;;;;;;;;3590680;39;20036;-62
2021/06/15 01:22:36;;;;;;;82.88;12.10;;;;;;;;;;3596347;39;20724;-62
2021/06/15 01:25:06;;;;;;;100.18;12.93;;;;;;;;;;3595322;39;20020;-62
2021/06/15 01:27:43;;;;;;;122.65;14.90;;;;;;;;;;3590118;39;20036;-62
2021/06/15 01:30:12;;;;;;;145.82;17.52;;;;;;;;;;3598594;39;20036;-62
2021/06/15 01:32:40;;;;;;;135.38;19.55;;;;;;;;;;3589948;39;20039;-62
2021/06/15 01:35:07;;;;;;;116.28;14.00;;;;;;;;;;3585493;39;20035;-62
2021/06/15 01:37:37;;;;;;;118.80;15.82;;;;;;;;;;3589476;39;20063;-62
2021/06/15 01:40:09;;;;;;;112.65;14.00;;;;;;;;;;3587774;39;20490;-62
2021/06/15 01:42:49;;;;;;;101.25;13.68;;;;;;;;;;3581157;39;20048;-62
2021/06/15 01:45:21;;;;;;;129.00;15.82;;;;;;;;;;3588411;39;20153;-62
2021/06/15 01:47:58;;;;;;;111.90;13.73;;;;;;;;;;3588489;39;20393;-62
2021/06/15 01:50:31;;;;;;;140.80;16.77;;;;;;;;;;3584274;39;20051;-62
2021/06/15 01:52:57;;;;;;;104.88;13.20;;;;;;;;;;3595908;39;20032;-62
2021/06/15 01:55:25;;;;;;;149.05;18.85;;;;;;;;;;3590270;39;20572;-62
2021/06/15 01:57:56;;;;;;;131.77;43.03;;;;;;;;;;3590195;39;20043;-62
2021/06/15 02:00:23;;;;;;;235.93;130.88;;;;;;;;;;3593847;39;20870;-62
2021/06/15 02:02:56;;;;;;;452.95;377.23;;;;;;;;;;3595881;39;20043;-62
2021/06/15 02:05:34;;;;;;;156.65;40.75;;;;;;;;;;3595266;39;20137;-62
2021/06/15 02:08:02;;;;;;;220.05;115.85;;;;;;;;;;3586521;39;20810;-61
2021/06/15 02:10:30;;;;;;;230.93;107.53;;;;;;;;;;3590759;39;20032;-62
2021/06/15 02:13:33;;;;;;;195.65;69.95;;;;;;;;;;3584884;39;20072;-62
2021/06/15 02:16:29;;;;;;;182.43;60.60;;;;;;;;;;3586185;39;20101;-61
2021/06/15 02:19:19;;;;;;;199.95;51.50;;;;;;;;;;3590280;39;20121;-62
2021/06/15 02:21:56;;;;;;;195.35;64.82;;;;;;;;;;3589356;39;20039;-61
2021/06/15 02:24:31;;;;;;;196.73;66.90;;;;;;;;;;3595839;39;20072;-62
2021/06/15 02:26:58;;;;;;;217.60;89.05;;;;;;;;;;3580403;39;20043;-62
2021/06/15 02:29:24;;;;;;;203.10;86.38;;;;;;;;;;3589195;39;20042;-62
2021/06/15 02:31:59;;;;;;;236.30;117.07;;;;;;;;;;3589242;39;20032;-62
2021/06/15 02:34:27;;;;;;;244.45;31.77;;;;;;;;;;3580926;39;20103;-62
2021/06/15 02:36:59;;;;;;;179.45;35.85;;;;;;;;;;3588104;39;20156;-61
2021/06/15 02:39:28;;;;;;;132.43;19.85;;;;;;;;;;3596949;39;20043;-62
2021/06/15 02:41:55;;;;;;;145.00;17.38;;;;;;;;;;3597162;39;20117;-61
2021/06/15 02:44:24;;;;;;;133.77;16.35;;;;;;;;;;3588343;39;20028;-62
2021/06/15 02:46:56;;;;;;;108.70;14.02;;;;;;;;;;3583648;39;20058;-62
2021/06/15 02:49:26;;;;;;;96.47;12.95;;;;;;;;;;3593730;39;20063;-62
2021/06/15 02:51:55;;;;;;;56.78;9.35;;;;;;;;;;3595400;39;20047;-62
2021/06/15 02:54:24;;;;;;;109.35;15.27;;;;;;;;;;3588194;39;20140;-61
2021/06/15 02:56:53;;;;;;;65.57;11.48;;;;;;;;;;3593389;39;20055;-62
2021/06/15 02:59:20;;;;;;;40.88;8.93;;;;;;;;;;3596452;39;20043;-62
2021/06/15 03:01:48;;;;;;;81.80;12.05;;;;;;;;;;3584641;39;20046;-62
2021/06/15 03:04:16;;;;;;;230.30;37.55;;;;;;;;;;3590621;39;20044;-62
2021/06/15 03:06:42;;;;;;;71.97;10.73;;;;;;;;;;3593760;39;20043;-62
2021/06/15 03:09:09;;;;;;;53.72;10.43;;;;;;;;;;3598341;39;20038;-61
2021/06/15 03:11:38;;;;;;;44.50;10.45;;;;;;;;;;3588207;39;20036;-62
2021/06/15 03:14:10;;;;;;;11.05;4.78;;;;;;;;;;3588201;39;20440;-62
2021/06/15 03:16:36;;;;;;;8.73;4.78;;;;;;;;;;3582928;39;20047;-62
2021/06/15 03:19:02;;;;;;;8.27;4.65;;;;;;;;;;3585293;39;20020;-61
2021/06/15 03:21:32;;;;;;;77.07;11.98;;;;;;;;;;3587120;39;20036;-62
2021/06/15 03:24:03;;;;;;;51.63;10.18;;;;;;;;;;3586605;39;20038;-62
2021/06/15 03:26:40;;;;;;;101.70;14.50;;;;;;;;;;3583381;39;20031;-62
2021/06/15 03:29:13;;;;;;;84.03;13.30;;;;;;;;;;3593584;39;20351;-62
2021/06/15 03:31:42;;;;;;;81.53;13.15;;;;;;;;;;3588336;39;20128;-62
2021/06/15 03:34:12;;;;;;;261.17;51.63;;;;;;;;;;3583665;39;20032;-62
2021/06/15 03:36:39;;;;;;;85.57;12.68;;;;;;;;;;3584241;39;20127;-62
2021/06/15 03:39:06;;;;;;;120.55;16.05;;;;;;;;;;3596228;39;20024;-62
2021/06/15 03:41:35;;;;;;;92.68;13.75;;;;;;;;;;3592223;39;20031;-62
2021/06/15 03:44:02;;;;;;;128.88;18.33;;;;;;;;;;3593596;39;20040;-62
2021/06/15 03:46:30;;;;;;;95.78;13.27;;;;;;;;;;3595933;39;20104;-62
2021/06/15 03:48:57;;;;;;;89.78;13.35;;;;;;;;;;3595299;39;20469;-62
2021/06/15 03:51:25;;;;;;;98.60;13.95;;;;;;;;;;3583728;39;20132;-62
2021/06/15 03:53:51;;;;;;;102.72;14.10;;;;;;;;;;3592289;39;20044;-65
2021/06/15 03:56:18;;;;;;;73.40;10.77;;;;;;;;;;3597940;39;20613;-65
2021/06/15 03:58:45;;;;;;;89.40;12.60;;;;;;;;;;3588375;39;20081;-65
2021/06/15 04:01:13;;;;;;;92.28;13.27;;;;;;;;;;3595935;39;20039;-65
2021/06/15 04:03:40;;;;;;;72.53;11.25;;;;;;;;;;3596027;39;20028;-65
2021/06/15 04:06:07;;;;;;;102.95;14.35;;;;;;;;;;3581018;39;20568;-65
2021/06/15 04:08:35;;;;;;;86.25;12.82;;;;;;;;;;3592752;39;20031;-65
2021/06/15 04:11:02;;;;;;;97.82;13.68;;;;;;;;;;3587318;39;20028;-63
2021/06/15 04:13:29;;;;;;;90.13;12.82;;;;;;;;;;3596250;39;20032;-65
2021/06/15 04:15:55;;;;;;;82.05;12.35;;;;;;;;;;3594360;39;20021;-65
2021/06/15 04:18:24;;;;;;;89.10;12.88;;;;;;;;;;3597503;39;20035;-65
2021/06/15 04:20:52;;;;;;;100.55;14.35;;;;;;;;;;3597988;39;20027;-65
2021/06/15 04:23:20;;;;;;;82.80;12.43;;;;;;;;;;3597505;39;20020;-65
2021/06/15 04:25:47;;;;;;;81.30;12.05;;;;;;;;;;3593306;39;20858;-65
2021/06/15 04:28:14;;;;;;;95.88;13.70;;;;;;;;;;3599624;39;20042;-65
2021/06/15 04:30:40;;;;;;;82.72;13.27;;;;;;;;;;3595727;39;20388;-65
2021/06/15 04:33:09;;;;;;;84.60;13.23;;;;;;;;;;3597330;39;20039;-65
2021/06/15 04:35:42;;;;;;;75.43;12.00;;;;;;;;;;3597929;39;20031;-65
2021/06/15 04:38:15;;;;;;;162.27;26.48;;;;;;;;;;3585976;39;20070;-65
2021/06/15 04:40:45;;;;;;;89.97;14.00;;;;;;;;;;3595889;39;20795;-65
2021/06/15 04:43:18;;;;;;;82.50;12.80;;;;;;;;;;3587399;39;20024;-65
2021/06/15 04:45:45;;;;;;;85.70;13.65;;;;;;;;;;3590126;39;20024;-65
2021/06/15 04:48:16;;;;;;;71.10;12.02;;;;;;;;;;3599201;39;20020;-65
2021/06/15 04:50:42;;;;;;;98.45;14.90;;;;;;;;;;3598765;39;20051;-65
2021/06/15 04:53:10;;;;;;;71.35;12.07;;;;;;;;;;3598594;39;20036;-65
2021/06/15 04:55:37;;;;;;;69.25;12.00;;;;;;;;;;3589813;39;20030;-65
2021/06/15 04:58:04;;;;;;;66.55;11.48;;;;;;;;;;3589586;39;20721;-65
2021/06/15 05:00:30;;;;;;;61.47;10.80;;;;;;;;;;3596472;39;20510;-65
2021/06/15 05:02:58;;;;;;;76.97;12.73;;;;;;;;;;3597232;39;20132;-65
2021/06/15 05:05:25;;;;;;;61.15;10.35;;;;;;;;;;3595376;39;20032;-65
2021/06/15 05:07:59;;;;;;;65.22;11.40;;;;;;;;;;3599404;39;20023;-65
2021/06/15 05:10:26;;;;;;;73.40;12.30;;;;;;;;;;3597897;39;20028;-65
2021/06/15 05:12:53;;;;;;;57.08;10.43;;;;;;;;;;3598884;39;20016;-65
2021/06/15 05:15:21;;;;;;;74.60;13.25;;;;;;;;;;3597082;39;20038;-65
2021/06/15 05:17:48;;;;;;;52.30;13.43;;;;;;;;;;3598336;39;20039;-65
2021/06/15 05:20:15;;;;;;;83.47;14.10;;;;;;;;;;3587621;39;20019;-66
2021/06/15 05:22:45;;;;;;;147.02;26.77;;;;;;;;;;3580360;39;20632;-65
2021/06/15 05:25:12;;;;;;;75.75;12.50;;;;;;;;;;3598249;39;20038;-64
2021/06/15 05:27:38;;;;;;;90.47;14.55;;;;;;;;;;3592895;39;20333;-65
2021/06/15 05:30:05;;;;;;;78.75;13.35;;;;;;;;;;3593754;39;20138;-65
2021/06/15 05:32:32;;;;;;;96.80;15.13;;;;;;;;;;3595749;39;20031;-65
2021/06/15 05:34:58;;;;;;;74.15;12.88;;;;;;;;;;3589418;39;20890;-65
2021/06/15 05:37:25;;;;;;;64.90;11.50;;;;;;;;;;3598815;39;20038;-65
2021/06/15 05:39:51;;;;;;;84.82;15.30;;;;;;;;;;3595647;39;20027;-65
2021/06/15 05:42:17;;;;;;;62.67;11.00;;;;;;;;;;3596612;39;20036;-64
2021/06/15 05:44:44;;;;;;;47.92;11.00;;;;;;;;;;3598553;39;20463;-65
2021/06/15 05:47:10;;;;;;;62.40;11.50;;;;;;;;;;3593960;39;20399;-65
2021/06/15 05:49:36;;;;;;;92.13;15.13;;;;;;;;;;3595556;39;20015;-65
2021/06/15 05:52:06;;;;;;;55.60;11.45;;;;;;;;;;3595697;39;20068;-65
2021/06/15 05:54:32;;;;;;;97.43;15.00;;;;;;;;;;3596617;39;20064;-65
2021/06/15 05:56:59;;;;;;;102.70;14.43;;;;;;;;;;3589124;39;20040;-61
2021/06/15 05:59:25;;;;;;;52.53;11.43;;;;;;;;;;3597916;39;20027;-62
2021/06/15 06:01:51;;;;;;;48.58;11.00;;;;;;;;;;3597108;39;20024;-64
2021/06/15 06:04:23;;;;;;;94.28;13.85;;;;;;;;;;3594456;39;20026;-62
2021/06/15 06:09:38;;;;;;;116.07;16.35;;;;;;;;;;3597387;39;20077;-62
2021/06/15 06:12:05;;;;;;;95.18;13.85;;;;;;;;;;3599268;39;20034;-62
2021/06/15 06:14:31;;;;;;;97.00;14.10;;;;;;;;;;3595540;39;20064;-62
2021/06/15 06:16:57;;;;;;;74.93;12.82;;;;;;;;;;3594695;39;20126;-62
2021/06/15 06:19:23;;;;;;;94.63;14.32;;;;;;;;;;3581838;40;20093;-62
2021/06/15 06:21:50;;;;;;;38.22;11.02;;;;;;;;;;3595445;39;20028;-62
2021/06/15 06:24:17;;;;;;;47.63;15.95;;;;;;;;;;3592845;39;20393;-62
2021/06/15 06:26:47;;;;;;;24.33;8.13;;;;;;;;;;3597867;39;20815;-61
2021/06/15 06:29:13;;;;;;;33.40;9.57;;;;;;;;;;3584698;39;20039;-62
2021/06/15 06:31:40;;;;;;;33.95;10.23;;;;;;;;;;3598025;39;20952;-62
2021/06/15 06:34:06;;;;;;;29.60;11.13;;;;;;;;;;3595132;39;20064;-62
2021/06/15 06:36:32;;;;;;;36.92;11.02;;;;;;;;;;3597708;39;20039;-62
2021/06/15 06:38:58;;;;;;;29.55;9.32;;;;;;;;;;3595386;39;20043;-62
2021/06/15 06:41:27;;;;;;;43.22;11.80;;;;;;;;;;3597347;39;20024;-62
2021/06/15 06:43:53;;;;;;;32.92;9.57;;;;;;;;;;3598586;39;20625;-62
2021/06/15 06:46:19;;;;;;;39.60;11.10;;;;;;;;;;3595151;39;20030;-62
2021/06/15 06:48:45;;;;;;;35.17;10.43;;;;;;;;;;3588808;39;20391;-62
2021/06/15 06:51:12;;;;;;;43.67;12.00;;;;;;;;;;3597220;39;20823;-62
2021/06/15 06:53:38;;;;;;;46.83;11.43;;;;;;;;;;3595116;39;20424;-63
2021/06/15 06:56:07;;;;;;;23.88;8.43;;;;;;;;;;3596778;39;20797;-62
2021/06/15 06:58:34;;;;;;;60.20;12.95;;;;;;;;;;3592180;39;20032;-62
2021/06/15 07:01:00;;;;;;;74.43;12.70;;;;;;;;;;3596139;39;20044;-62
2021/06/15 07:03:27;;;;;;;62.05;11.88;;;;;;;;;;3595722;39;20137;-65
2021/06/15 07:05:53;;;;;;;67.28;12.20;;;;;;;;;;3593251;39;20047;-66
2021/06/15 07:08:19;;;;;;;73.40;12.88;;;;;;;;;;3598536;39;20075;-66
2021/06/15 07:10:45;;;;;;;77.93;12.98;;;;;;;;;;3597333;39;20614;-65
2021/06/15 07:13:11;;;;;;;72.50;12.57;;;;;;;;;;3595250;39;20521;-66
2021/06/15 07:15:37;;;;;;;79.07;13.98;;;;;;;;;;3595242;39;20028;-66
2021/06/15 07:18:03;;;;;;;84.68;12.80;;;;;;;;;;3596559;39;20038;-66
2021/06/15 07:20:29;;;;;;;83.90;13.40;;;;;;;;;;3587791;39;20553;-65
2021/06/15 07:22:56;;;;;;;100.00;14.52;;;;;;;;;;3592291;39;20052;-66
2021/06/15 07:25:22;;;;;;;103.45;14.05;;;;;;;;;;3590634;39;20417;-66
2021/06/15 07:27:48;;;;;;;87.60;13.52;;;;;;;;;;3585021;39;20032;-66
2021/06/15 07:30:15;;;;;;;105.63;15.07;;;;;;;;;;3596622;39;20016;-66
2021/06/15 07:32:41;;;;;;;126.78;16.45;;;;;;;;;;3598063;39;20031;-66
2021/06/15 07:35:08;;;;;;;90.68;13.50;;;;;;;;;;3594677;39;20103;-65
2021/06/15 07:37:34;;;;;;;97.53;14.48;;;;;;;;;;3595486;39;20060;-65
2021/06/15 07:40:00;;;;;;;75.43;13.50;;;;;;;;;;3594606;39;20035;-66
2021/06/15 07:42:29;;;;;;;77.82;13.27;;;;;;;;;;3596587;39;20020;-66
2021/06/15 07:44:55;;;;;;;95.68;13.98;;;;;;;;;;3589201;39;20028;-64
2021/06/15 07:47:21;;;;;;;95.47;14.30;;;;;;;;;;3589447;39;20120;-65
2021/06/15 07:49:47;;;;;;;123.30;18.25;;;;;;;;;;3593917;39;20028;-66
2021/06/15 07:52:13;;;;;;;19.50;8.65;;;;;;;;;;3594523;39;20034;-66
2021/06/15 07:54:41;;;;;;;13.35;7.25;;;;;;;;;;3594006;39;20073;-66
2021/06/15 07:57:11;;;;;;;13.43;5.97;;;;;;;;;;3597839;39;20032;-66
2021/06/15 07:59:37;;;;;;;24.98;8.75;;;;;;;;;;3593688;39;20031;-66
2021/06/15 08:02:03;;;;;;;27.33;8.05;;;;;;;;;;3594627;39;20035;-66
2021/06/15 08:04:29;;;;;;;34.45;11.45;;;;;;;;;;3591905;39;20068;-66
2021/06/15 08:06:56;;;;;;;46.50;12.52;;;;;;;;;;3591640;39;20502;-66
2021/06/15 08:09:22;;;;;;;25.35;9.02;;;;;;;;;;3592737;39;20039;-65
2021/06/15 08:11:48;;;;;;;47.50;11.40;;;;;;;;;;3596176;39;20031;-64
2021/06/15 08:14:14;;;;;;;62.88;13.10;;;;;;;;;;3594263;39;20024;-65
2021/06/15 08:16:40;;;;;;;60.35;11.13;;;;;;;;;;3594224;39;20127;-65
2021/06/15 08:19:06;;;;;;;16.08;6.80;;;;;;;;;;3589618;39;20028;-67
2021/06/15 08:21:32;;;;;;;52.38;10.40;;;;;;;;;;3592978;39;20028;-66
2021/06/15 08:23:58;;;;;;;78.72;13.93;;;;;;;;;;3596572;39;20946;-64
2021/06/15 08:26:24;;;;;;;12.50;4.70;;;;;;;;;;3591074;39;20031;-64
2021/06/15 08:28:50;;;;;;;33.17;8.50;;;;;;;;;;3594906;39;20129;-64
2021/06/15 08:31:17;;;;;;;39.58;8.45;;;;;;;;;;3596508;39;20035;-67
2021/06/15 08:33:43;;;;;;;24.42;7.78;;;;;;;;;;3594766;39;20105;-67
2021/06/15 08:36:09;;;;;;;26.73;8.35;;;;;;;;;;3596013;39;20039;-66
2021/06/15 08:38:35;;;;;;;24.85;10.35;;;;;;;;;;3596020;39;20020;-67
2021/06/15 08:41:01;;;;;;;20.30;7.53;;;;;;;;;;3594836;39;20105;-69
2021/06/15 08:43:27;;;;;;;20.33;7.45;;;;;;;;;;3595852;39;20036;-68
2021/06/15 08:45:54;;;;;;;20.20;6.88;;;;;;;;;;3591519;39;20024;-69
2021/06/15 08:48:21;;;;;;;19.02;8.15;;;;;;;;;;3595363;39;20043;-69
2021/06/15 08:50:47;;;;;;;21.80;8.55;;;;;;;;;;3593339;39;20038;-69
2021/06/15 08:53:13;;;;;;;9.93;5.75;;;;;;;;;;3595480;39;20077;-69
2021/06/15 08:55:40;;;;;;;15.32;5.93;;;;;;;;;;3596629;39;20117;-68
2021/06/15 08:58:24;;;;;;;14.30;6.03;;;;;;;;;;3592550;39;20028;-68
2021/06/15 09:00:50;;;;;;;20.30;7.95;;;;;;;;;;3594740;39;20031;-68
2021/06/15 09:03:17;;;;;;;21.13;6.53;;;;;;;;;;3595014;39;20995;-68
2021/06/15 09:05:43;;;;;;;21.65;6.80;;;;;;;;;;3592411;39;20039;-68
2021/06/15 09:08:13;;;;;;;16.17;6.97;;;;;;;;;;3591576;39;20032;-69
2021/06/15 09:10:40;;;;;;;11.77;5.72;;;;;;;;;;3586510;39;20127;-69
2021/06/15 09:13:08;;;;;;;14.10;5.70;;;;;;;;;;3595843;39;20095;-68
2021/06/15 09:15:34;;;;;;;10.27;5.57;;;;;;;;;;3594232;39;20028;-68
2021/06/15 09:18:00;;;;;;;15.88;6.15;;;;;;;;;;3598054;39;20035;-68
2021/06/15 09:20:31;;;;;;;16.50;6.63;;;;;;;;;;3593335;39;20024;-69
2021/06/15 09:23:04;;;;;;;14.10;6.07;;;;;;;;;;3582848;39;20277;-65
2021/06/15 09:25:30;;;;;;;19.45;8.05;;;;;;;;;;3591402;39;20107;-65
2021/06/15 09:27:58;;;;;;;14.68;6.25;;;;;;;;;;3593560;39;20117;-66
2021/06/15 09:30:29;;;;;;;35.53;16.15;;;;;;;;;;3596512;39;20070;-66
2021/06/15 09:32:56;;;;;;;22.13;8.02;;;;;;;;;;3596786;39;20035;-65
2021/06/15 09:35:28;;;;;;;18.70;7.10;;;;;;;;;;3592030;39;20042;-66
2021/06/15 09:37:56;;;;;;;20.80;7.68;;;;;;;;;;3593040;39;20625;-67
2021/06/15 09:40:27;;;;;;;17.33;7.85;;;;;;;;;;3582975;39;20340;-66
2021/06/15 09:43:01;;;;;;;19.33;8.45;;;;;;;;;;3593444;39;20077;-67
2021/06/15 09:45:35;;;;;;;22.55;8.10;;;;;;;;;;3593482;39;20072;-66
2021/06/15 09:48:21;;;;;;;14.70;6.63;;;;;;;;;;3596497;39;20038;-65
2021/06/15 09:50:47;;;;;;;11.82;6.32;;;;;;;;;;3595260;39;20040;-65
2021/06/15 09:53:23;;;;;;;15.90;7.70;;;;;;;;;;3594913;39;20020;-65
2021/06/15 09:55:50;;;;;;;18.45;6.78;;;;;;;;;;3589485;39;20047;-65
2021/06/15 09:58:16;;;;;;;10.77;6.20;;;;;;;;;;3591328;39;20043;-65
2021/06/15 10:00:43;;;;;;;21.08;6.13;;;;;;;;;;3593960;39;20152;-65
2021/06/15 10:03:16;;;;;;;15.18;5.93;;;;;;;;;;3595003;39;20153;-65
2021/06/15 10:05:42;;;;;;;14.55;6.43;;;;;;;;;;3597749;39;20329;-65
2021/06/15 10:08:11;;;;;;;11.90;5.85;;;;;;;;;;3589670;39;20523;-65
2021/06/15 10:10:41;;;;;;;12.23;5.35;;;;;;;;;;3599577;39;20120;-65
2021/06/15 10:13:08;;;;;;;10.95;5.57;;;;;;;;;;3595182;39;20043;-66
2021/06/15 10:15:35;;;;;;;15.05;6.07;;;;;;;;;;3593230;39;20032;-67
2021/06/15 10:18:01;;;;;;;13.68;6.32;;;;;;;;;;3596163;39;20020;-67
2021/06/15 10:20:29;;;;;;;10.80;5.43;;;;;;;;;;3590138;39;20035;-67
2021/06/15 10:22:55;;;;;;;9.05;5.25;;;;;;;;;;3592822;39;20020;-67
2021/06/15 10:25:22;;;;;;;12.38;5.03;;;;;;;;;;3593465;39;20106;-67
2021/06/15 10:27:52;;;;;;;9.77;4.88;;;;;;;;;;3595821;39;20301;-67
2021/06/15 10:30:28;;;;;;;14.43;5.57;;;;;;;;;;3592837;39;20393;-67
2021/06/15 10:32:55;;;;;;;8.65;5.25;;;;;;;;;;3587635;39;20016;-67
2021/06/15 10:35:36;;;;;;;9.88;5.40;;;;;;;;;;3593221;39;20024;-65
2021/06/15 10:38:02;;;;;;;10.15;4.82;;;;;;;;;;3595591;39;20038;-64
2021/06/15 10:40:33;;;;;;;14.82;5.75;;;;;;;;;;3596435;39;20043;-65
2021/06/15 10:43:15;;;;;;;8.95;5.30;;;;;;;;;;3597623;39;20136;-66
2021/06/15 10:45:42;;;;;;;11.18;7.35;;;;;;;;;;3597483;39;20805;-65
2021/06/15 10:48:17;;;;;;;15.85;8.15;;;;;;;;;;3597644;39;20035;-65
2021/06/15 10:50:46;;;;;;;10.63;5.20;;;;;;;;;;3595492;39;20060;-67
2021/06/15 10:53:12;;;;;;;12.18;6.10;;;;;;;;;;3586936;39;20024;-67
2021/06/15 10:55:48;;;;;;;15.23;6.50;;;;;;;;;;3591741;39;20032;-67
2021/06/15 10:58:15;;;;;;;13.70;5.88;;;;;;;;;;3592434;39;20031;-67
2021/06/15 11:00:46;;;;;;;10.80;5.25;;;;;;;;;;3593169;39;20754;-67
2021/06/15 11:03:19;;;;;;;13.55;6.18;;;;;;;;;;3594701;39;20028;-67
2021/06/15 11:05:48;;;;;;;18.15;6.20;;;;;;;;;;3586961;39;20028;-65
2021/06/15 11:08:20;;;;;;;13.15;5.50;;;;;;;;;;3578370;39;20032;-66
2021/06/15 11:10:46;;;;;;;9.52;4.85;;;;;;;;;;3590939;39;20508;-66
2021/06/15 11:13:12;;;;;;;13.45;5.35;;;;;;;;;;3588908;39;20143;-65
2021/06/15 11:15:56;;;;;;;11.32;5.53;;;;;;;;;;3591502;39;20073;-66
2021/06/15 11:18:22;;;;;;;11.38;5.03;;;;;;;;;;3595145;39;20035;-66
2021/06/15 11:20:49;;;;;;;12.15;4.78;;;;;;;;;;3591984;39;20119;-67
2021/06/15 11:23:15;;;;;;;12.13;5.28;;;;;;;;;;3580464;39;20024;-67
2021/06/15 11:25:45;;;;;;;13.05;5.10;;;;;;;;;;3593972;39;20487;-67
2021/06/15 11:28:30;;;;;;;13.00;5.57;;;;;;;;;;3596106;39;20027;-67
2021/06/15 11:31:15;;;;;;;9.30;5.05;;;;;;;;;;3593396;39;20717;-66
2021/06/15 11:33:41;;;;;;;;;;;;;;;;;;3592236;39;20036;-66
2021/06/15 11:36:27;;;;;;;12.85;4.70;;;;;;;;;;3589361;39;19935;-66
2021/06/15 11:39:12;;;;;;;11.95;4.78;;;;;;;;;;3595055;39;20075;-66
2021/06/15 11:41:56;;;;;;;11.65;5.70;;;;;;;;;;3592415;39;20036;-67
2021/06/15 11:44:41;;;;;;;16.80;7.18;;;;;;;;;;3594270;39;20034;-66
2021/06/15 11:47:26;;;;;;;18.73;6.50;;;;;;;;;;3591234;39;20024;-67
2021/06/15 11:49:52;;;;;;;;;;;;;;;;;;3594549;39;20592;-66
2021/06/15 11:52:18;;;;;;;10.35;5.90;;;;;;;;;;3593757;39;19932;-66
2021/06/15 11:54:45;;;;;;;19.13;6.50;;;;;;;;;;3595899;39;20032;-67
2021/06/15 11:57:11;;;;;;;10.20;4.90;;;;;;;;;;3589966;39;20674;-65
2021/06/15 11:59:41;;;;;;;12.95;5.53;;;;;;;;;;3580795;39;20063;-65
2021/06/15 12:02:07;;;;;;;12.15;5.15;;;;;;;;;;3593878;39;20028;-65
2021/06/15 12:04:35;;;;;;;11.15;5.07;;;;;;;;;;3590289;39;20032;-65
2021/06/15 12:07:17;;;;;;;10.90;4.50;;;;;;;;;;3591353;39;20027;-65
2021/06/15 12:10:02;;;;;;;8.43;4.10;;;;;;;;;;3590656;39;20040;-64
2021/06/15 12:12:28;;;;;;;14.88;5.28;;;;;;;;;;3591140;39;20124;-65
2021/06/15 12:14:54;;;;;;;11.95;5.32;;;;;;;;;;3593116;39;20124;-65
2021/06/15 12:17:20;;;;;;;13.68;5.40;;;;;;;;;;3594017;39;20020;-65
2021/06/15 12:19:46;;;;;;;52.75;10.40;;;;;;;;;;3580598;39;20029;-65
2021/06/15 12:22:16;;;;;;;55.60;9.73;;;;;;;;;;3593565;39;20021;-66
2021/06/15 12:24:46;;;;;;;99.30;13.52;;;;;;;;;;3591226;39;20028;-65
2021/06/15 12:27:21;;;;;;;58.38;9.52;;;;;;;;;;3594195;39;20140;-64
2021/06/15 12:29:48;;;;;;;53.67;10.73;;;;;;;;;;3592843;39;20422;-65
2021/06/15 12:32:14;;;;;;;48.60;9.13;;;;;;;;;;3580217;39;20093;-65
2021/06/15 12:34:40;;;;;;;51.67;9.77;;;;;;;;;;3591231;39;20496;-65
2021/06/15 12:37:06;;;;;;;94.80;12.55;;;;;;;;;;3594544;39;20444;-65
2021/06/15 12:39:36;;;;;;;101.18;12.23;;;;;;;;;;3594244;39;20367;-65
2021/06/15 12:42:06;;;;;;;189.02;43.80;;;;;;;;;;3592701;39;20081;-65
2021/06/15 12:44:39;;;;;;;514.58;155.55;;;;;;;;;;3580428;39;20094;-65
2021/06/15 12:47:06;;;;;;;147.80;20.98;;;;;;;;;;3583942;39;20488;-65
2021/06/15 12:49:33;;;;;;;122.00;15.30;;;;;;;;;;3596743;39;20412;-65
2021/06/15 12:52:07;;;;;;;118.85;14.63;;;;;;;;;;3594798;39;20020;-66
2021/06/15 12:54:39;;;;;;;109.32;14.13;;;;;;;;;;3596908;39;20092;-65
2021/06/15 12:57:08;;;;;;;114.05;14.40;;;;;;;;;;3598361;39;20608;-66
2021/06/15 12:59:35;;;;;;;103.63;13.05;;;;;;;;;;3598187;39;20027;-65
2021/06/15 13:02:23;;;;;;;85.40;11.82;;;;;;;;;;3595638;39;20702;-66
2021/06/15 13:04:59;;;;;;;78.07;11.07;;;;;;;;;;3590061;39;20034;-65
2021/06/15 13:07:26;;;;;;;101.18;13.38;;;;;;;;;;3591810;39;20025;-65
2021/06/15 13:09:52;;;;;;;92.60;13.60;;;;;;;;;;3588490;39;20588;-65
2021/06/15 13:12:22;;;;;;;84.75;12.07;;;;;;;;;;3592275;39;20042;-65
2021/06/15 13:14:55;;;;;;;92.68;12.65;;;;;;;;;;3595633;39;20023;-65
2021/06/15 13:17:23;;;;;;;98.05;13.40;;;;;;;;;;3594682;39;20032;-65
2021/06/15 13:19:50;;;;;;;101.05;14.38;;;;;;;;;;3595276;39;20508;-65
2021/06/15 13:22:20;;;;;;;95.40;12.15;;;;;;;;;;3598955;39;20123;-65
2021/06/15 13:24:48;;;;;;;126.45;15.15;;;;;;;;;;3590326;39;20597;-65
2021/06/15 13:27:45;;;;;;;127.75;14.95;;;;;;;;;;3593381;39;20028;-65
2021/06/15 13:30:27;;;;;;;84.90;10.90;;;;;;;;;;3582791;39;20766;-65
2021/06/15 13:33:03;;;;;;;102.40;13.50;;;;;;;;;;3599664;39;20689;-65
2021/06/15 13:35:29;;;;;;;123.55;14.95;;;;;;;;;;3591980;39;20047;-65
2021/06/15 13:37:59;;;;;;;94.63;11.90;;;;;;;;;;3594232;39;20043;-65
2021/06/15 13:40:44;;;;;;;105.15;13.05;;;;;;;;;;3593707;39;20048;-64
2021/06/15 13:43:13;;;;;;;103.25;12.70;;;;;;;;;;3591447;39;20063;-65
2021/06/15 13:45:41;;;;;;;90.65;11.57;;;;;;;;;;3590923;39;20043;-65
2021/06/15 13:48:07;;;;;;;93.63;12.00;;;;;;;;;;3592117;39;20031;-65
2021/06/15 13:50:33;;;;;;;95.60;12.00;;;;;;;;;;3592635;39;20039;-65
2021/06/15 13:53:00;;;;;;;106.18;13.18;;;;;;;;;;3594217;39;20024;-65
2021/06/15 13:55:26;;;;;;;80.07;10.73;;;;;;;;;;3592050;39;20028;-65
2021/06/15 13:57:52;;;;;;;78.28;10.55;;;;;;;;;;3595959;39;20049;-65
2021/06/15 14:00:20;;;;;;;82.80;10.63;;;;;;;;;;3590463;39;20028;-65
2021/06/15 14:02:46;;;;;;;88.95;11.32;;;;;;;;;;3593274;39;20851;-65
2021/06/15 14:05:13;;;;;;;78.50;10.60;;;;;;;;;;3587483;39;20056;-64
2021/06/15 14:07:39;;;;;;;73.40;10.43;;;;;;;;;;3597566;39;20044;-65
2021/06/15 14:10:06;;;;;;;97.93;11.95;;;;;;;;;;3589512;39;20609;-65
2021/06/15 14:12:32;;;;;;;110.30;13.02;;;;;;;;;;3595747;39;20033;-65
2021/06/15 14:15:04;;;;;;;104.13;12.32;;;;;;;;;;3590488;39;20024;-64
2021/06/15 14:17:31;;;;;;;102.57;12.93;;;;;;;;;;3595137;39;20145;-65
2021/06/15 14:19:57;;;;;;;93.82;12.10;;;;;;;;;;3597575;39;20036;-65
2021/06/15 14:22:23;;;;;;;53.10;9.73;;;;;;;;;;3599193;39;20172;-65
2021/06/15 14:24:49;;;;;;;57.40;8.82;;;;;;;;;;3595861;39;20124;-65
2021/06/15 14:27:15;;;;;;;35.80;8.00;;;;;;;;;;3595011;39;20028;-65
2021/06/15 14:29:41;;;;;;;42.72;8.98;;;;;;;;;;3593362;39;20027;-64
2021/06/15 14:32:08;;;;;;;52.08;9.23;;;;;;;;;;3586623;39;20112;-64
2021/06/15 14:34:34;;;;;;;125.78;25.23;;;;;;;;;;3590199;39;20128;-65